Huvudsida
METAR-TAF:

METAR-TAF

Flygplatser :

Dala Airport

Borlänge, Sverige

latitud: 60-26N, longitud: 015-31E, höjd: 145 m

Aktuellt väderrapport

Denna rapport gjordes för 27 minuter sedan, klockan 08:20 UTC
Vind 6 kt från nord/nordväst, varierande mellan väst/nordväst och nord/nordost
Temperatur 21°C
Fuktighet 56%
Tryck 1014 hPa
Sikt 10 km eller mer

METAR: ESSD 200820Z AUTO 33006KT 290V020 9999 NCD 21/12 Q1014

Tid: 10:47 (08:47 UTC)

Väderprognos

Denna rapport gjordes för 21 timmar och 17 minuter sedan, klockan 11:30 UTC
Prognos gäller från 19 kl. 12 UTC till 19 kl. 14 UTC
Vind 9 kt från väst/nordväst
Sikt 10 km eller mer
Inga moln under 1 500 m eller inga cumulonimbus

TAF: ESSD 191130Z 1912/1914 30009KT CAVOK

Aktuella väderrapporter och prognoser från 4000 flygplatser (METAR- och TAF-rapporter).

De tillgängliga stationerna syns som gula och röda prickar på kartan.

För musen över prickarna för att se namnen på stationerna.

Klicka sedan för att få väderrapporter och prognoser.

För att ändra kartan: Klicka på de gröna knapparna med ett svart kors på för att zooma in; den gröna knappen med ett streck på för att zooma ut; eller på de gröna pilarna för angränsande kartor.


METAR-TAF: